Time;durP1;ratioP1;P1;durP2;ratioP2;P2;SDS_P1;SDS_P2;PMS_P1;PMS_P2;Temp;Humidity;BMP_temperature;BMP_pressure;BME280_temperature;BME280_humidity;BME280_pressure;Samples;Min_cycle;Max_cycle;Signal;HPM_P1;HPM_P2
2022/10/09 00:00:46;;;;;;;10.40;4.28;;;;;;;12.85;86.12;97175.62;1725007;82;20951;-88
2022/10/09 00:03:15;;;;;;;5.30;3.45;;;;;;;12.82;87.27;97174.64;1720296;82;21416;-89
2022/10/09 00:05:42;;;;;;;6.25;3.77;;;;;;;12.79;87.69;97180.22;1744161;81;21369;-88
2022/10/09 00:08:08;;;;;;;7.67;3.75;;;;;;;12.76;87.01;97184.98;1733260;82;21061;-88
2022/10/09 00:10:33;;;;;;;5.50;3.05;;;;;;;12.74;87.29;97196.08;1728203;82;21416;-88
2022/10/09 00:12:59;;;;;;;6.72;3.70;;;;;;;12.69;86.68;97184.88;1719132;83;20990;-87
2022/10/09 00:15:25;;;;;;;6.95;3.77;;;;;;;12.63;87.47;97178.55;1720020;82;21354;-88
2022/10/09 00:17:50;;;;;;;6.42;2.90;;;;;;;12.60;88.26;97189.82;1684544;83;20958;-88
2022/10/09 00:20:16;;;;;;;5.75;3.20;;;;;;;12.58;87.24;97188.70;1734093;82;20970;-88
2022/10/09 00:22:42;;;;;;;5.40;3.35;;;;;;;12.59;87.96;97193.42;1727625;82;21376;-88
2022/10/09 00:25:08;;;;;;;6.83;3.65;;;;;;;12.56;86.96;97198.49;1738639;81;20929;-87
2022/10/09 00:27:34;;;;;;;7.53;3.62;;;;;;;12.53;87.52;97198.84;1739046;82;20929;-88
2022/10/09 00:30:01;;;;;;;8.08;3.12;;;;;;;12.56;87.92;97202.90;1743925;81;20947;-88
2022/10/09 00:32:27;;;;;;;5.33;3.22;;;;;;;12.54;88.14;97201.77;1733068;82;21040;-88
2022/10/09 00:34:52;;;;;;;6.33;3.75;;;;;;;12.51;88.51;97202.09;1710177;83;20931;-88
2022/10/09 00:37:18;;;;;;;5.80;3.17;;;;;;;12.48;87.44;97203.75;1727988;82;20977;-88
2022/10/09 00:39:44;;;;;;;6.72;3.33;;;;;;;12.49;87.49;97202.76;1709669;83;21022;-88
2022/10/09 00:42:11;;;;;;;4.28;2.83;;;;;;;12.52;87.45;97211.53;1720730;82;20962;-88
2022/10/09 00:44:56;;;;;;;4.97;2.95;;;;;;;12.55;87.36;97213.82;1696275;83;21411;-88
2022/10/09 00:47:39;;;;;;;5.62;2.95;;;;;;;12.57;88.03;97214.45;1700960;83;20994;-87
2022/10/09 00:50:37;;;;;;;7.03;4.45;;;;;;;12.61;88.28;97219.63;1737034;81;21005;-88
2022/10/09 00:53:04;;;;;;;6.58;3.20;;;;;;;12.59;88.39;97201.23;1729902;82;21058;-87
2022/10/09 00:55:30;;;;;;;6.28;3.10;;;;;;;12.50;87.92;97206.18;1717803;82;21403;-88
2022/10/09 00:57:56;;;;;;;4.42;2.80;;;;;;;12.47;88.22;97203.43;1732637;82;21002;-88
2022/10/09 01:00:22;;;;;;;7.62;3.15;;;;;;;12.45;88.04;97208.01;1727180;82;21005;-88
2022/10/09 01:02:48;;;;;;;7.80;3.30;;;;;;;12.45;87.65;97202.80;1730854;81;20925;-88
2022/10/09 01:05:14;;;;;;;4.72;2.80;;;;;;;12.47;87.69;97202.13;1726761;81;20983;-88
2022/10/09 01:07:54;;;;;;;4.58;3.00;;;;;;;12.45;87.34;97211.92;1722933;81;21313;-88
2022/10/09 01:10:34;;;;;;;7.17;3.37;;;;;;;12.43;87.17;97213.89;1711954;81;21058;-87
2022/10/09 01:13:34;;;;;;;7.50;3.45;;;;;;;12.38;86.67;97211.00;1728371;81;21051;-88
2022/10/09 01:16:08;;;;;;;7.30;3.08;;;;;;;12.28;86.40;97217.72;1734665;81;20979;-88
2022/10/09 01:18:46;;;;;;;5.70;2.95;;;;;;;12.25;86.94;97216.77;1746356;82;20992;-88
2022/10/09 01:21:26;;;;;;;5.83;2.75;;;;;;;12.25;86.83;97215.96;1756053;81;21386;-88
2022/10/09 01:24:21;;;;;;;6.05;2.72;;;;;;;12.24;87.73;97213.03;1737019;82;20943;-88
2022/10/09 01:27:13;;;;;;;6.97;3.08;;;;;;;12.25;88.08;97215.47;1756601;81;20933;-88
2022/10/09 01:29:47;;;;;;;5.03;2.60;;;;;;;12.28;88.22;97218.22;1741959;81;20963;-88
2022/10/09 01:32:16;;;;;;;6.20;2.77;;;;;;;12.30;88.22;97224.06;1717571;82;21364;-88
2022/10/09 01:34:42;;;;;;;4.80;2.55;;;;;;;12.31;88.29;97229.59;1717216;82;20978;-88
2022/10/09 01:37:08;;;;;;;3.70;2.70;;;;;;;12.29;87.92;97232.86;1717300;82;21236;-88
2022/10/09 01:39:34;;;;;;;5.37;2.72;;;;;;;12.26;87.36;97231.42;1683353;82;20925;-88
2022/10/09 01:41:59;;;;;;;6.05;3.40;;;;;;;12.18;87.17;97238.45;1740500;81;21032;-87
2022/10/09 01:44:29;;;;;;;7.22;3.30;;;;;;;12.10;86.59;97233.30;1735414;81;21410;-88
2022/10/09 01:46:55;;;;;;;6.33;2.80;;;;;;;12.06;86.74;97241.95;1732985;81;20940;-88
2022/10/09 01:49:35;;;;;;;5.92;3.10;;;;;;;12.01;86.87;97239.02;1732921;81;21451;-88
2022/10/09 01:52:42;;;;;;;6.67;2.85;;;;;;;12.02;87.23;97242.75;1716223;81;21022;-87
2022/10/09 01:55:19;;;;;;;7.40;3.10;;;;;;;12.03;87.07;97243.07;1752045;81;21035;-88
2022/10/09 01:58:44;;;;;;;7.17;3.67;;;;;;;12.09;87.25;97247.30;1730307;82;21388;-88
2022/10/09 02:01:20;;;;;;;5.05;2.90;;;;;;;12.09;87.04;97252.52;1722610;82;21519;-87
2022/10/09 02:03:48;;;;;;;6.17;3.05;;;;;;;11.99;86.80;97249.61;1727783;82;20968;-87
2022/10/09 02:06:15;;;;;;;5.00;2.87;;;;;;;11.93;87.08;97252.09;1730906;82;20950;-87
2022/10/09 02:08:41;;;;;;;6.10;2.80;;;;;;;11.91;87.36;97257.47;1736765;81;21012;-87
2022/10/09 02:11:09;;;;;;;5.25;2.85;;;;;;;11.91;87.50;97254.86;1708793;82;21370;-88
2022/10/09 02:13:35;;;;;;;7.10;2.65;;;;;;;11.91;87.33;97261.38;1746433;81;21045;-88
2022/10/09 02:16:18;;;;;;;5.97;2.62;;;;;;;11.90;87.29;97270.17;1725959;82;21109;-88
2022/10/09 02:18:47;;;;;;;6.92;2.95;;;;;;;11.87;87.13;97263.16;1733665;82;21058;-88
2022/10/09 02:21:21;;;;;;;5.10;2.80;;;;;;;11.84;87.35;97268.71;1729196;82;20994;-88
2022/10/09 02:23:47;;;;;;;5.37;2.65;;;;;;;11.82;87.27;97278.00;1749288;82;21033;-88
2022/10/09 02:26:12;;;;;;;6.65;2.90;;;;;;;11.77;86.61;97273.76;1744753;82;20950;-88
2022/10/09 02:28:38;;;;;;;7.90;3.92;;;;;;;11.64;86.61;97257.84;1744154;82;21381;-88
2022/10/09 02:31:27;;;;;;;4.83;3.50;;;;;;;11.61;86.45;97271.19;1741782;82;21075;-88
2022/10/09 02:33:57;;;;;;;5.50;3.12;;;;;;;11.57;86.64;97271.21;1730678;82;20964;-88
2022/10/09 02:36:23;;;;;;;6.28;3.22;;;;;;;11.53;87.23;97277.21;1726498;82;20966;-88
2022/10/09 02:38:49;;;;;;;9.05;3.40;;;;;;;11.52;87.32;97274.29;1733158;82;20959;-87
2022/10/09 02:41:15;;;;;;;7.50;3.52;;;;;;;11.51;87.16;97280.47;1744425;82;20950;-88
2022/10/09 02:43:40;;;;;;;8.48;3.52;;;;;;;11.49;86.87;97292.03;1747004;81;21034;-87
2022/10/09 02:46:06;;;;;;;5.53;2.87;;;;;;;11.41;86.94;97295.47;1738954;82;20974;-87
2022/10/09 02:48:32;;;;;;;7.03;4.37;;;;;;;11.39;87.18;97294.83;1732519;82;20954;-87
2022/10/09 02:50:59;;;;;;;7.08;3.65;;;;;;;11.36;87.19;97294.64;1720063;83;20943;-88
2022/10/09 02:53:25;;;;;;;6.67;3.67;;;;;;;11.34;87.55;97303.10;1689609;83;21006;-88
2022/10/09 02:55:51;;;;;;;5.75;3.70;;;;;;;11.29;87.26;97303.28;1744989;81;21273;-88
2022/10/09 02:58:17;;;;;;;5.05;3.52;;;;;;;11.32;87.70;97306.84;1760316;81;20986;-88
2022/10/09 03:00:44;;;;;;;6.37;3.90;;;;;;;11.29;87.21;97304.09;1748896;82;20946;-88
2022/10/09 03:03:10;;;;;;;8.93;4.60;;;;;;;11.26;87.41;97307.52;1746766;82;21372;-88
2022/10/09 03:05:36;;;;;;;7.40;4.83;;;;;;;11.20;87.24;97312.86;1727996;82;20962;-88
2022/10/09 03:08:02;;;;;;;7.83;3.98;;;;;;;11.17;87.57;97310.59;1736879;82;20998;-87
2022/10/09 03:10:27;;;;;;;4.97;4.33;;;;;;;11.22;87.57;97320.01;1742005;82;21383;-88
2022/10/09 03:12:53;;;;;;;6.33;3.92;;;;;;;11.18;87.45;97320.02;1724999;82;21107;-87
2022/10/09 03:15:19;;;;;;;5.70;3.40;;;;;;;11.21;87.56;97313.67;1725680;83;21392;-87
2022/10/09 03:17:44;;;;;;;5.85;3.45;;;;;;;11.22;87.08;97322.61;1725111;82;20991;-88
2022/10/09 03:20:10;;;;;;;4.70;3.00;;;;;;;11.22;87.10;97327.00;1722756;82;20955;-87
2022/10/09 03:22:36;;;;;;;5.40;3.20;;;;;;;11.20;86.94;97325.87;1704623;82;20947;-88
2022/10/09 03:25:01;;;;;;;6.80;3.65;;;;;;;11.12;86.71;97327.99;1709491;83;20997;-87
2022/10/09 03:27:29;;;;;;;5.08;3.25;;;;;;;11.06;86.68;97334.30;1707658;83;21051;-88
2022/10/09 03:29:57;;;;;;;6.33;3.37;;;;;;;11.02;87.05;97337.72;1707065;82;20943;-88
2022/10/09 03:32:22;;;;;;;7.17;3.42;;;;;;;11.03;87.13;97335.94;1690176;83;21086;-88
2022/10/09 03:34:49;;;;;;;5.45;3.37;;;;;;;11.04;87.01;97333.66;1709512;82;21026;-88
2022/10/09 03:37:14;;;;;;;8.35;3.92;;;;;;;11.06;87.06;97335.61;1680650;85;21372;-88
2022/10/09 03:39:40;;;;;;;6.90;3.67;;;;;;;11.07;87.17;97335.96;1709121;82;21027;-88
2022/10/09 03:42:06;;;;;;;5.15;3.95;;;;;;;11.07;87.15;97341.16;1706006;83;20979;-88
2022/10/09 03:44:31;;;;;;;7.22;3.87;;;;;;;11.00;87.12;97342.27;1677969;84;21082;-88
2022/10/09 03:46:57;;;;;;;7.33;3.45;;;;;;;10.96;87.19;97340.98;1710450;83;21002;-88
2022/10/09 03:49:23;;;;;;;5.58;3.35;;;;;;;10.98;87.44;97335.61;1707902;82;20944;-88
2022/10/09 03:51:49;;;;;;;6.42;3.90;;;;;;;10.96;87.18;97337.56;1708405;83;20950;-88
2022/10/09 03:54:14;;;;;;;5.65;3.47;;;;;;;10.96;87.21;97340.98;1677444;85;21026;-88
2022/10/09 03:56:40;;;;;;;7.10;3.33;;;;;;;10.93;87.05;97346.99;1690165;85;21081;-88
2022/10/09 03:59:08;;;;;;;6.53;3.62;;;;;;;10.89;87.22;97351.67;1690314;84;21006;-87
2022/10/09 04:01:33;;;;;;;6.58;3.90;;;;;;;10.88;87.44;97346.64;1690126;83;21081;-87
2022/10/09 04:03:59;;;;;;;6.37;3.75;;;;;;;10.82;87.36;97358.02;1691481;83;21381;-88
2022/10/09 04:06:24;;;;;;;6.60;3.40;;;;;;;10.80;87.18;97357.84;1706436;83;20970;-88
2022/10/09 04:08:50;;;;;;;5.10;3.60;;;;;;;10.77;86.99;97351.67;1706012;83;20983;-87
2022/10/09 04:11:16;;;;;;;5.65;3.30;;;;;;;10.74;86.77;97358.01;1688459;83;21079;-87
2022/10/09 04:13:42;;;;;;;4.55;3.90;;;;;;;10.70;86.86;97363.17;1700018;81;21010;-87
2022/10/09 04:16:11;;;;;;;9.88;4.08;;;;;;;10.68;86.94;97360.41;1694470;83;21431;-88
2022/10/09 04:18:36;;;;;;;5.55;3.50;;;;;;;10.63;86.93;97355.69;1690191;83;21025;-88
2022/10/09 04:21:02;;;;;;;6.62;3.35;;;;;;;10.60;87.06;97360.40;1711365;83;20931;-87
2022/10/09 04:23:27;;;;;;;6.97;3.47;;;;;;;10.53;86.84;97361.01;1688291;84;21382;-87
2022/10/09 04:25:54;;;;;;;5.92;3.40;;;;;;;10.50;86.81;97371.72;1690613;84;20963;-88
2022/10/09 04:28:22;;;;;;;6.30;3.40;;;;;;;10.47;87.00;97373.83;1690839;83;21113;-87
2022/10/09 04:30:49;;;;;;;6.75;3.62;;;;;;;10.44;86.91;97374.14;1701622;83;20933;-88
2022/10/09 04:33:15;;;;;;;5.80;3.62;;;;;;;10.42;87.29;97379.50;1723256;82;21022;-88
2022/10/09 04:35:43;;;;;;;6.62;3.27;;;;;;;10.43;87.49;97377.72;1691077;83;20962;-88
2022/10/09 04:38:08;;;;;;;8.58;4.17;;;;;;;10.39;87.41;97384.98;1690797;83;21007;-88
2022/10/09 04:40:34;;;;;;;6.53;3.83;;;;;;;10.35;87.19;97388.06;1690882;84;20971;-88
2022/10/09 04:43:00;;;;;;;7.35;3.80;;;;;;;10.37;87.33;97393.42;1691067;83;20966;-88
2022/10/09 04:45:25;;;;;;;9.25;3.90;;;;;;;10.37;87.02;97397.32;1724561;82;21417;-87
2022/10/09 04:47:51;;;;;;;8.38;3.92;;;;;;;10.40;87.28;97400.09;1702361;83;20971;-88
2022/10/09 04:50:19;;;;;;;7.72;3.75;;;;;;;10.42;87.12;97402.07;1673822;85;21789;-87
2022/10/09 04:52:45;;;;;;;7.20;4.00;;;;;;;10.42;87.12;97402.07;1690807;83;21368;-86
2022/10/09 04:55:11;;;;;;;6.75;3.62;;;;;;;10.40;87.22;97407.39;1689485;83;20947;-87
2022/10/09 04:57:36;;;;;;;5.35;3.72;;;;;;;10.40;87.45;97409.99;1673284;83;21346;-87
2022/10/09 05:00:04;;;;;;;6.85;3.65;;;;;;;10.41;87.05;97416.00;1724851;82;20994;-87
2022/10/09 05:02:30;;;;;;;5.78;3.47;;;;;;;10.40;86.98;97411.78;1719017;83;21003;-87
2022/10/09 05:04:56;;;;;;;5.45;3.25;;;;;;;10.40;86.91;97414.38;1699399;83;21050;-87
2022/10/09 05:07:23;;;;;;;5.20;3.40;;;;;;;10.34;87.04;97407.21;1706597;83;21343;-88
2022/10/09 05:09:49;;;;;;;5.97;3.58;;;;;;;10.36;87.01;97416.48;1701575;83;21005;-88
2022/10/09 05:12:14;;;;;;;7.12;4.17;;;;;;;10.35;86.82;97418.75;1711253;83;21305;-87
2022/10/09 05:14:40;;;;;;;5.35;3.55;;;;;;;10.34;87.05;97424.10;1725512;82;21060;-87
2022/10/09 05:17:06;;;;;;;5.40;3.00;;;;;;;10.22;86.61;97426.95;1723934;82;20986;-87
2022/10/09 05:19:32;;;;;;;4.85;2.98;;;;;;;10.21;86.94;97427.92;1731589;82;20943;-87
2022/10/09 05:21:59;;;;;;;6.05;3.58;;;;;;;10.25;87.23;97435.41;1728588;81;20984;-87
2022/10/09 05:24:27;;;;;;;7.85;3.92;;;;;;;10.29;87.09;97434.15;1738568;81;21480;-87
2022/10/09 05:26:53;;;;;;;7.40;4.22;;;;;;;10.30;87.06;97432.69;1725976;82;20944;-87
2022/10/09 05:29:19;;;;;;;6.72;3.62;;;;;;;10.30;87.25;97435.29;1724958;82;20923;-88
2022/10/09 05:31:46;;;;;;;5.12;3.60;;;;;;;10.31;87.21;97433.02;1735548;81;21004;-88
2022/10/09 05:34:12;;;;;;;6.10;3.25;;;;;;;10.31;87.22;97435.62;1735528;81;21312;-87
2022/10/09 05:36:38;;;;;;;6.22;3.40;;;;;;;10.33;86.80;97441.95;1717109;82;20923;-87
2022/10/09 05:39:04;;;;;;;14.05;5.53;;;;;;;10.26;86.87;97452.16;1738886;82;21027;-87
2022/10/09 05:41:30;;;;;;;9.40;7.25;;;;;;;10.30;87.17;97450.06;1740325;82;21054;-88
2022/10/09 05:44:01;;;;;;;7.85;3.80;;;;;;;10.33;87.16;97449.75;1730021;82;21014;-87
2022/10/09 05:46:28;;;;;;;5.03;3.67;;;;;;;10.32;86.84;97454.13;1754034;81;21374;-86
2022/10/09 05:49:06;;;;;;;6.05;3.95;;;;;;;10.28;86.88;97458.50;1744536;82;20966;-87
2022/10/09 05:51:34;;;;;;;6.08;3.35;;;;;;;10.23;86.31;97462.83;1744255;82;20931;-87
2022/10/09 05:54:03;;;;;;;6.97;3.90;;;;;;;10.18;86.70;97460.67;1759600;81;21018;-87
2022/10/09 05:56:35;;;;;;;5.92;3.80;;;;;;;10.23;86.98;97460.23;1740870;82;20973;-87
2022/10/09 05:59:07;;;;;;;5.27;3.53;;;;;;;10.16;86.07;97463.09;1711376;82;21004;-86
2022/10/09 06:01:37;;;;;;;5.03;3.92;;;;;;;10.14;86.58;97463.73;1698982;82;21359;-87
2022/10/09 06:04:03;;;;;;;7.85;4.30;;;;;;;10.18;86.74;97469.76;1756026;81;21014;-87
2022/10/09 06:06:31;;;;;;;4.85;3.65;;;;;;;10.24;87.13;97465.75;1731073;82;21042;-87
2022/10/09 06:08:57;;;;;;;7.00;4.22;;;;;;;10.27;86.24;97471.16;1737774;82;21004;-88
2022/10/09 06:11:27;;;;;;;5.42;3.98;;;;;;;10.27;86.07;97466.78;1740350;82;21424;-87
2022/10/09 06:13:54;;;;;;;5.75;3.50;;;;;;;10.29;86.42;97473.92;1743800;81;21106;-85
2022/10/09 06:16:23;;;;;;;6.17;3.90;;;;;;;10.35;86.84;97478.98;1741117;81;20946;-85
2022/10/09 06:18:49;;;;;;;4.90;3.58;;;;;;;10.39;86.61;97479.00;1737993;81;21043;-85
2022/10/09 06:21:15;;;;;;;5.67;3.90;;;;;;;10.41;86.39;97477.91;1728949;83;21062;-85
2022/10/09 06:23:40;;;;;;;7.33;4.10;;;;;;;10.35;85.78;97483.70;1711281;84;21416;-85
2022/10/09 06:26:10;;;;;;;7.35;3.98;;;;;;;10.38;86.00;97480.78;1726610;81;20974;-85
2022/10/09 06:28:36;;;;;;;6.03;4.20;;;;;;;10.34;85.74;97494.24;1731568;82;20942;-85
2022/10/09 06:31:11;;;;;;;9.03;4.85;;;;;;;10.34;86.24;97499.44;1724276;81;21306;-84
2022/10/09 06:33:39;;;;;;;6.20;5.53;;;;;;;10.29;85.99;97507.70;1731508;82;21022;-85
2022/10/09 06:36:12;;;;;;;8.63;4.80;;;;;;;10.25;86.15;97509.43;1728375;82;21036;-85
2022/10/09 06:38:39;;;;;;;7.25;4.37;;;;;;;10.25;86.48;97508.98;1722388;83;21426;-85
2022/10/09 06:41:07;;;;;;;5.15;4.25;;;;;;;10.26;86.25;97509.30;1732440;82;20964;-85
2022/10/09 06:43:33;;;;;;;5.72;4.12;;;;;;;10.30;86.37;97516.30;1732840;82;20993;-85
2022/10/09 06:46:00;;;;;;;6.03;3.87;;;;;;;10.35;86.31;97508.86;1729201;83;20979;-85
2022/10/09 06:48:30;;;;;;;6.92;4.60;;;;;;;10.39;86.44;97517.97;1743606;81;21002;-85
2022/10/09 06:51:01;;;;;;;6.37;4.25;;;;;;;10.43;86.48;97514.13;1744201;81;21021;-85
2022/10/09 06:53:26;;;;;;;6.42;3.62;;;;;;;10.44;86.65;97517.05;1719186;83;21121;-84
2022/10/09 06:55:54;;;;;;;5.03;4.53;;;;;;;10.44;86.10;97523.06;1723410;82;21365;-85
2022/10/09 06:58:19;;;;;;;11.00;7.75;;;;;;;10.40;85.88;97521.72;1740941;82;21356;-85
2022/10/09 07:00:45;;;;;;;5.28;4.30;;;;;;;10.42;86.00;97525.48;1729950;82;20906;-85
2022/10/09 07:03:11;;;;;;;6.95;6.10;;;;;;;10.41;86.01;97523.37;1724296;82;20975;-84
2022/10/09 07:05:36;;;;;;;7.92;5.70;;;;;;;10.49;86.24;97518.70;1731761;82;21417;-85
2022/10/09 07:08:02;;;;;;;6.58;5.37;;;;;;;10.51;85.96;97521.95;1717873;81;20945;-85
2022/10/09 07:10:28;;;;;;;8.88;4.92;;;;;;;10.52;86.17;97529.59;1704682;82;21344;-85
2022/10/09 07:12:54;;;;;;;7.58;4.15;;;;;;;10.57;86.72;97534.33;1737629;81;20959;-85
2022/10/09 07:15:20;;;;;;;9.10;5.62;;;;;;;10.55;85.53;97536.75;1737442;81;21080;-85
2022/10/09 07:17:45;;;;;;;5.53;4.90;;;;;;;10.53;85.66;97544.70;1718116;83;20974;-85
2022/10/09 07:20:11;;;;;;;9.13;6.10;;;;;;;10.56;85.79;97540.98;1727836;82;21014;-85
2022/10/09 07:22:37;;;;;;;7.17;5.28;;;;;;;10.61;85.85;97538.76;1728245;83;21381;-85
2022/10/09 07:25:03;;;;;;;8.88;5.70;;;;;;;10.57;85.41;97548.62;1718511;82;20988;-85
2022/10/09 07:27:29;;;;;;;7.28;5.83;;;;;;;10.49;85.53;97552.48;1733265;82;20958;-85
2022/10/09 07:29:55;;;;;;;16.70;12.70;;;;;;;10.47;85.96;97553.12;1716973;82;21007;-84
2022/10/09 07:32:20;;;;;;;12.05;8.83;;;;;;;10.48;86.27;97554.75;1734468;82;20984;-85
2022/10/09 07:34:46;;;;;;;8.15;6.70;;;;;;;10.49;86.01;97566.29;1716145;82;21356;-85
2022/10/09 07:37:12;;;;;;;7.12;5.75;;;;;;;10.54;86.06;97569.72;1718104;82;20999;-85
2022/10/09 07:39:39;;;;;;;6.78;5.55;;;;;;;10.56;85.88;97570.37;1728311;83;20946;-85
2022/10/09 07:42:04;;;;;;;8.83;5.12;;;;;;;10.53;85.54;97570.20;1724983;83;20971;-84
2022/10/09 07:44:31;;;;;;;7.30;6.50;;;;;;;10.49;85.39;97574.56;1708199;83;21041;-85
2022/10/09 07:46:56;;;;;;;7.10;6.33;;;;;;;10.45;85.47;97576.66;1701951;83;21346;-85
2022/10/09 07:49:22;;;;;;;8.08;5.12;;;;;;;10.44;85.85;97571.62;1693483;82;20990;-85
2022/10/09 07:51:48;;;;;;;5.97;5.15;;;;;;;10.39;85.10;97573.34;1732830;82;21054;-85
2022/10/09 07:54:14;;;;;;;7.37;6.08;;;;;;;10.37;85.25;97575.28;1728269;83;20952;-85
2022/10/09 07:56:41;;;;;;;6.00;5.40;;;;;;;10.41;85.49;97571.44;1727144;82;21061;-84
2022/10/09 07:59:11;;;;;;;7.22;5.47;;;;;;;10.47;85.49;97573.91;1728423;82;21319;-85
2022/10/09 08:01:37;;;;;;;8.65;5.80;;;;;;;10.50;85.68;97573.11;1736745;82;21005;-85
2022/10/09 08:04:03;;;;;;;9.25;5.83;;;;;;;10.55;85.27;97570.53;1734300;82;20968;-85
2022/10/09 08:06:29;;;;;;;8.80;6.47;;;;;;;10.57;84.98;97576.39;1735566;82;20965;-85
2022/10/09 08:08:56;;;;;;;6.65;4.78;;;;;;;10.53;84.35;97577.19;1735173;82;20951;-85
2022/10/09 08:11:24;;;;;;;7.65;5.47;;;;;;;10.42;83.46;97573.55;1735575;82;21356;-84
2022/10/09 08:13:50;;;;;;;6.50;5.47;;;;;;;10.42;84.61;97580.05;1727693;82;21038;-85
2022/10/09 08:16:17;;;;;;;6.80;4.97;;;;;;;10.49;84.08;97578.47;1719885;83;21152;-85
2022/10/09 08:18:42;;;;;;;7.80;5.30;;;;;;;10.51;84.10;97575.23;1712808;83;21039;-84
2022/10/09 08:21:12;;;;;;;6.25;5.17;;;;;;;10.56;84.34;97583.38;1713906;82;21028;-85
2022/10/09 08:23:37;;;;;;;8.53;6.67;;;;;;;10.61;84.47;97592.03;1724851;82;21013;-85
2022/10/09 08:26:03;;;;;;;9.93;7.30;;;;;;;10.62;84.35;97577.59;1689783;85;21255;-85
2022/10/09 08:28:29;;;;;;;6.75;6.00;;;;;;;10.72;84.68;97586.56;1739393;81;20967;-85
2022/10/09 08:30:55;;;;;;;7.30;5.58;;;;;;;10.83;85.70;97589.73;1720054;82;21380;-85
2022/10/09 08:33:22;;;;;;;7.58;5.53;;;;;;;10.86;83.62;97594.30;1716538;82;21050;-85
2022/10/09 08:35:48;;;;;;;7.70;6.17;;;;;;;10.97;84.43;97594.04;1727200;81;20992;-85
2022/10/09 08:38:14;;;;;;;8.13;6.12;;;;;;;11.06;83.37;97597.84;1719732;82;21037;-85
2022/10/09 08:40:59;;;;;;;11.35;7.17;;;;;;;11.02;82.09;97600.88;1693457;83;21017;-85
2022/10/09 08:43:31;;;;;;;11.48;9.13;;;;;;;10.99;82.53;97596.81;1736775;82;21024;-84
2022/10/09 08:46:00;;;;;;;9.25;8.13;;;;;;;10.97;82.49;97600.55;1737677;81;20991;-85
2022/10/09 08:48:25;;;;;;;10.15;8.33;;;;;;;10.96;82.75;97602.81;1716964;81;21269;-84
2022/10/09 08:50:52;;;;;;;13.00;7.87;;;;;;;10.95;83.11;97602.00;1733495;81;21336;-85
2022/10/09 08:53:51;;;;;;;10.68;7.67;;;;;;;10.97;82.77;97604.44;1748662;81;20959;-85
2022/10/09 08:56:16;;;;;;;6.83;5.72;;;;;;;10.99;82.76;97601.20;1720462;82;20985;-85
2022/10/09 08:58:42;;;;;;;7.30;6.03;;;;;;;11.01;82.21;97590.16;1719079;82;21021;-85
2022/10/09 09:01:23;;;;;;;9.35;5.70;;;;;;;11.06;82.75;97593.09;1735611;82;20962;-85
2022/10/09 09:04:23;;;;;;;6.62;5.55;;;;;;;11.17;82.90;97595.44;1752778;81;20966;-85
2022/10/09 09:07:03;;;;;;;5.92;4.85;;;;;;;11.26;82.81;97604.92;1738812;81;21384;-85
2022/10/09 09:10:03;;;;;;;6.47;5.55;;;;;;;11.22;81.11;97597.56;1741275;82;21006;-85
2022/10/09 09:12:49;;;;;;;7.15;4.75;;;;;;;11.17;81.14;97594.62;1741040;81;21036;-85
2022/10/09 09:15:44;;;;;;;5.45;4.95;;;;;;;11.30;80.70;97601.03;1741708;82;21435;-85
2022/10/09 09:18:36;;;;;;;7.62;5.10;;;;;;;11.38;81.16;97604.13;1652684;82;21110;-86
2022/10/09 09:21:21;;;;;;;9.45;7.03;;;;;;;11.42;81.10;97598.48;1750494;81;20943;-85
2022/10/09 09:23:47;;;;;;;14.40;9.45;;;;;;;11.36;81.39;97607.38;1736369;81;21416;-85
2022/10/09 09:26:19;;;;;;;8.75;5.95;;;;;;;11.29;81.63;97604.60;1743153;81;20982;-85
2022/10/09 09:28:46;;;;;;;8.68;5.62;;;;;;;11.34;81.70;97608.84;1732795;82;20990;-85
2022/10/09 09:31:22;;;;;;;6.03;4.47;;;;;;;11.33;80.83;97604.61;1753214;81;20956;-85
2022/10/09 09:33:56;;;;;;;7.90;4.65;;;;;;;11.30;80.74;97602.33;1715555;82;20967;-85
2022/10/09 09:36:48;;;;;;;6.62;4.58;;;;;;;11.32;80.69;97602.98;1728083;82;21010;-84
2022/10/09 09:39:13;;;;;;;6.87;4.60;;;;;;;11.45;81.20;97600.44;1731650;82;21316;-85
2022/10/09 09:41:41;;;;;;;6.55;3.85;;;;;;;11.69;80.62;97603.91;1721942;82;20909;-85
2022/10/09 09:44:10;;;;;;;7.20;4.08;;;;;;;11.87;80.53;97603.83;1744555;82;21352;-85
2022/10/09 09:46:36;;;;;;;5.72;3.72;;;;;;;11.98;77.97;97603.53;1692561;83;21091;-85
2022/10/09 09:49:02;;;;;;;5.17;3.90;;;;;;;11.96;78.59;97602.88;1749332;81;20903;-84
2022/10/09 09:51:30;;;;;;;5.90;3.10;;;;;;;11.87;76.61;97611.64;1738712;81;20930;-85
2022/10/09 09:54:03;;;;;;;4.10;3.60;;;;;;;11.72;77.27;97606.72;1733508;81;20986;-85
2022/10/09 09:56:39;;;;;;;6.47;4.10;;;;;;;11.71;78.27;97607.20;1710023;82;20975;-85
2022/10/09 09:59:05;;;;;;;6.45;3.87;;;;;;;11.71;77.92;97605.05;1718825;82;21009;-85
2022/10/09 10:01:31;;;;;;;6.05;3.58;;;;;;;11.82;78.22;97600.08;1723965;82;20925;-85
2022/10/09 10:04:01;;;;;;;6.55;3.75;;;;;;;11.94;77.64;97600.11;1730404;82;21346;-85
2022/10/09 10:06:34;;;;;;;4.10;2.87;;;;;;;12.01;76.75;97603.20;1687796;83;21073;-85
2022/10/09 10:09:05;;;;;;;7.20;3.45;;;;;;;12.07;76.05;97588.73;1691700;83;21368;-85
2022/10/09 10:11:31;;;;;;;7.85;5.05;;;;;;;12.17;77.11;97593.78;1744501;82;21442;-85
2022/10/09 10:14:08;;;;;;;4.62;2.52;;;;;;;12.32;77.36;97590.85;1724747;82;21059;-84
2022/10/09 10:16:36;;;;;;;7.85;3.55;;;;;;;12.32;74.09;97587.76;1687556;83;21055;-85
2022/10/09 10:19:02;;;;;;;6.67;3.05;;;;;;;12.36;74.66;97583.02;1742561;81;20921;-85
2022/10/09 10:21:39;;;;;;;4.60;2.50;;;;;;;12.30;74.39;97589.72;1737195;81;20976;-85
2022/10/09 10:24:04;;;;;;;5.22;2.98;;;;;;;12.23;73.27;97591.84;1717391;82;20994;-85
2022/10/09 10:26:35;;;;;;;6.05;2.98;;;;;;;12.27;74.44;97589.23;1717507;83;21372;-85
2022/10/09 10:29:20;;;;;;;5.90;3.70;;;;;;;12.34;74.55;97588.89;1717256;82;20982;-85
2022/10/09 10:32:00;;;;;;;5.28;2.77;;;;;;;12.31;73.16;97595.73;1708295;82;20954;-85
2022/10/09 10:34:29;;;;;;;4.75;2.50;;;;;;;12.27;71.52;97590.53;1740104;81;20994;-85
2022/10/09 10:37:15;;;;;;;4.40;2.72;;;;;;;12.37;72.63;97579.47;1740282;82;21260;-85
2022/10/09 10:40:09;;;;;;;3.35;3.02;;;;;;;12.51;70.41;97586.61;1710996;82;21087;-85
2022/10/09 10:42:54;;;;;;;3.77;2.52;;;;;;;12.59;72.56;97578.79;1738484;82;21045;-85
2022/10/09 10:45:34;;;;;;;4.80;2.60;;;;;;;12.84;73.63;97575.63;1750691;81;21018;-85
2022/10/09 10:48:00;;;;;;;4.37;3.08;;;;;;;12.90;73.82;97580.20;1746631;82;21371;-85
2022/10/09 10:50:35;;;;;;;3.45;2.52;;;;;;;12.85;72.13;97577.75;1745050;82;20986;-85
2022/10/09 10:53:39;;;;;;;5.58;3.10;;;;;;;12.70;71.38;97585.47;1696921;83;20974;-85
2022/10/09 10:56:12;;;;;;;2.80;2.35;;;;;;;12.64;71.53;97587.41;1742397;81;21284;-84
2022/10/09 10:59:04;;;;;;;5.42;2.95;;;;;;;12.72;72.08;97580.08;1725680;82;20933;-85
2022/10/09 11:01:53;;;;;;;4.70;2.47;;;;;;;12.71;68.32;97584.48;1739854;82;20925;-84
2022/10/09 11:04:25;;;;;;;4.58;2.60;;;;;;;12.66;69.62;97586.75;1723170;81;20941;-84
2022/10/09 11:07:23;;;;;;;2.85;2.17;;;;;;;12.69;69.12;97588.21;1740833;81;20961;-85
2022/10/09 11:09:58;;;;;;;7.70;2.37;;;;;;;12.78;69.02;97585.44;1739511;81;20959;-85
2022/10/09 11:12:58;;;;;;;3.62;2.67;;;;;;;12.94;66.92;97579.38;1750915;81;21345;-84
2022/10/09 11:15:41;;;;;;;5.03;2.67;;;;;;;12.98;66.89;97585.06;1729492;81;21054;-84
2022/10/09 11:18:30;;;;;;;4.62;2.80;;;;;;;13.08;69.07;97576.08;1766545;81;20962;-84
2022/10/09 11:21:21;;;;;;;6.55;3.50;;;;;;;13.06;69.16;97579.34;1747263;82;21033;-85
2022/10/09 11:24:20;;;;;;;4.22;3.02;;;;;;;12.98;69.80;97577.23;1712421;82;21011;-85
2022/10/09 11:27:32;;;;;;;5.53;2.72;;;;;;;12.94;70.01;97579.38;1738481;81;20961;-84
2022/10/09 11:30:05;;;;;;;;;;;;;;;12.88;68.31;97575.64;1727150;81;20933;-84
2022/10/09 11:33:17;;;;;;;5.90;2.25;;;;;;;12.82;69.31;97573.69;1745903;81;20331;-84
2022/10/09 11:35:47;;;;;;;3.75;2.70;;;;;;;12.94;68.73;97572.84;1697578;83;20951;-84
2022/10/09 11:38:30;;;;;;;6.53;2.72;;;;;;;13.09;68.15;97569.87;1725131;81;21337;-85
2022/10/09 11:40:56;;;;;;;3.37;2.33;;;;;;;13.17;67.65;97568.52;1744014;82;21025;-84
2022/10/09 11:43:29;;;;;;;5.28;2.00;;;;;;;13.20;67.62;97563.52;1747523;82;21078;-84
2022/10/09 11:46:09;;;;;;;5.62;2.50;;;;;;;13.13;68.77;97562.52;1735667;81;21493;-85
2022/10/09 11:48:52;;;;;;;5.73;2.70;;;;;;;13.06;69.10;97565.00;1722157;81;21051;-84
2022/10/09 11:51:43;;;;;;;5.00;3.85;;;;;;;12.90;68.63;97561.13;1730059;81;21414;-84